sensor_id;sensor_type;location;lat;lon;timestamp;pressure;altitude;pressure_sealevel;temperature;humidity
72525;BME280;60547;48.502;8.996;2022-07-23T00:00:45;97908.84;;;22.08;77.41
72525;BME280;60547;48.502;8.996;2022-07-23T00:03:11;97901.34;;;22.00;77.21
72525;BME280;60547;48.502;8.996;2022-07-23T00:05:37;97895.16;;;21.90;78.37
72525;BME280;60547;48.502;8.996;2022-07-23T00:08:02;97876.59;;;21.89;77.89
72525;BME280;60547;48.502;8.996;2022-07-23T00:10:28;97860.63;;;21.86;77.03
72525;BME280;60547;48.502;8.996;2022-07-23T00:12:54;97842.59;;;21.72;76.50
72525;BME280;60547;48.502;8.996;2022-07-23T00:15:19;97841.56;;;21.70;76.04
72525;BME280;60547;48.502;8.996;2022-07-23T00:17:44;97850.84;;;21.76;73.39
72525;BME280;60547;48.502;8.996;2022-07-23T00:20:10;97855.47;;;21.79;75.16
72525;BME280;60547;48.502;8.996;2022-07-23T00:22:36;97872.47;;;21.68;75.14
72525;BME280;60547;48.502;8.996;2022-07-23T00:25:01;97879.84;;;21.32;72.91
72525;BME280;60547;48.502;8.996;2022-07-23T00:27:27;97866.97;;;21.25;73.08
72525;BME280;60547;48.502;8.996;2022-07-23T00:29:52;97860.94;;;21.06;72.26
72525;BME280;60547;48.502;8.996;2022-07-23T00:32:17;97874.91;;;21.21;70.95
72525;BME280;60547;48.502;8.996;2022-07-23T00:34:43;97851.69;;;21.06;71.20
72525;BME280;60547;48.502;8.996;2022-07-23T00:37:08;97863.78;;;21.12;71.09
72525;BME280;60547;48.502;8.996;2022-07-23T00:39:34;97867.13;;;21.10;71.95
72525;BME280;60547;48.502;8.996;2022-07-23T00:41:59;97875.88;;;21.07;71.11
72525;BME280;60547;48.502;8.996;2022-07-23T00:44:26;97884.59;;;20.98;72.54
72525;BME280;60547;48.502;8.996;2022-07-23T00:46:54;97892.81;;;20.95;71.65
72525;BME280;60547;48.502;8.996;2022-07-23T00:49:21;97880.41;;;20.87;71.94
72525;BME280;60547;48.502;8.996;2022-07-23T00:51:47;97901.34;;;21.07;71.86
72525;BME280;60547;48.502;8.996;2022-07-23T00:54:13;97912.97;;;21.20;70.83
72525;BME280;60547;48.502;8.996;2022-07-23T00:56:39;97882.66;;;21.26;69.68
72525;BME280;60547;48.502;8.996;2022-07-23T00:59:07;97886.56;;;21.40;71.35
72525;BME280;60547;48.502;8.996;2022-07-23T01:01:32;97872.16;;;21.38;70.37
72525;BME280;60547;48.502;8.996;2022-07-23T01:03:57;97864.41;;;21.33;71.87
72525;BME280;60547;48.502;8.996;2022-07-23T01:06:23;97894.81;;;21.43;72.00
72525;BME280;60547;48.502;8.996;2022-07-23T01:08:48;97898.41;;;21.38;71.95
72525;BME280;60547;48.502;8.996;2022-07-23T01:11:14;97894.03;;;21.43;69.38
72525;BME280;60547;48.502;8.996;2022-07-23T01:13:43;97870.56;;;21.31;70.42
72525;BME280;60547;48.502;8.996;2022-07-23T01:16:09;97854.38;;;21.37;70.77
72525;BME280;60547;48.502;8.996;2022-07-23T01:18:34;97842.53;;;21.33;71.44
72525;BME280;60547;48.502;8.996;2022-07-23T01:20:59;97829.13;;;21.28;72.75
72525;BME280;60547;48.502;8.996;2022-07-23T01:23:25;97815.25;;;21.30;73.52
72525;BME280;60547;48.502;8.996;2022-07-23T01:25:54;97789.50;;;21.28;74.65
72525;BME280;60547;48.502;8.996;2022-07-23T01:28:20;97786.69;;;21.34;74.45
72525;BME280;60547;48.502;8.996;2022-07-23T01:30:46;97761.66;;;21.21;75.20
72525;BME280;60547;48.502;8.996;2022-07-23T01:33:12;97754.25;;;21.23;75.78
72525;BME280;60547;48.502;8.996;2022-07-23T01:35:38;97779.41;;;21.16;74.38
72525;BME280;60547;48.502;8.996;2022-07-23T01:38:03;97781.47;;;21.10;74.15
72525;BME280;60547;48.502;8.996;2022-07-23T01:40:28;97800.25;;;21.13;75.86
72525;BME280;60547;48.502;8.996;2022-07-23T01:42:54;97794.06;;;21.14;76.27
72525;BME280;60547;48.502;8.996;2022-07-23T01:45:19;97794.59;;;21.13;76.11
72525;BME280;60547;48.502;8.996;2022-07-23T01:47:45;97785.31;;;21.01;76.25
72525;BME280;60547;48.502;8.996;2022-07-23T01:50:12;97803.56;;;21.00;77.22
72525;BME280;60547;48.502;8.996;2022-07-23T01:52:37;97804.59;;;21.03;76.66
72525;BME280;60547;48.502;8.996;2022-07-23T01:55:03;97811.00;;;20.98;75.21
72525;BME280;60547;48.502;8.996;2022-07-23T01:57:28;97809.09;;;20.67;73.95
72525;BME280;60547;48.502;8.996;2022-07-23T01:59:54;97810.81;;;20.47;72.31
72525;BME280;60547;48.502;8.996;2022-07-23T02:02:19;97817.97;;;20.43;71.65
72525;BME280;60547;48.502;8.996;2022-07-23T02:04:44;97825.97;;;20.50;71.16
72525;BME280;60547;48.502;8.996;2022-07-23T02:07:10;97835.78;;;20.54;71.26
72525;BME280;60547;48.502;8.996;2022-07-23T02:09:35;97851.44;;;20.50;72.04
72525;BME280;60547;48.502;8.996;2022-07-23T02:12:01;97845.50;;;20.48;71.12
72525;BME280;60547;48.502;8.996;2022-07-23T02:14:27;97857.56;;;20.43;71.06
72525;BME280;60547;48.502;8.996;2022-07-23T02:16:52;97856.84;;;20.53;70.43
72525;BME280;60547;48.502;8.996;2022-07-23T02:19:18;97885.19;;;20.64;69.00
72525;BME280;60547;48.502;8.996;2022-07-23T02:21:43;97889.09;;;20.73;69.62
72525;BME280;60547;48.502;8.996;2022-07-23T02:24:09;97887.34;;;20.81;69.33
72525;BME280;60547;48.502;8.996;2022-07-23T02:26:34;97891.72;;;20.87;69.06
72525;BME280;60547;48.502;8.996;2022-07-23T02:29:03;97887.88;;;20.85;68.56
72525;BME280;60547;48.502;8.996;2022-07-23T02:31:29;97894.28;;;20.85;68.82
72525;BME280;60547;48.502;8.996;2022-07-23T02:33:56;97896.91;;;20.94;69.58
72525;BME280;60547;48.502;8.996;2022-07-23T02:36:21;97896.84;;;20.83;69.42
72525;BME280;60547;48.502;8.996;2022-07-23T02:38:46;97899.41;;;20.81;70.44
72525;BME280;60547;48.502;8.996;2022-07-23T02:41:12;97902.75;;;20.80;70.26
72525;BME280;60547;48.502;8.996;2022-07-23T02:43:38;97893.72;;;20.76;70.81
72525;BME280;60547;48.502;8.996;2022-07-23T02:46:03;97889.53;;;20.60;71.33
72525;BME280;60547;48.502;8.996;2022-07-23T02:48:29;97896.19;;;20.57;70.70
72525;BME280;60547;48.502;8.996;2022-07-23T02:50:54;97900.38;;;20.67;70.93
72525;BME280;60547;48.502;8.996;2022-07-23T02:53:24;97893.09;;;20.55;71.35
72525;BME280;60547;48.502;8.996;2022-07-23T02:55:50;97919.94;;;20.71;72.11
72525;BME280;60547;48.502;8.996;2022-07-23T02:58:15;97905.72;;;20.59;72.48
72525;BME280;60547;48.502;8.996;2022-07-23T03:00:41;97910.06;;;20.55;72.85
72525;BME280;60547;48.502;8.996;2022-07-23T03:03:06;97918.81;;;20.57;73.11
72525;BME280;60547;48.502;8.996;2022-07-23T03:05:33;97924.69;;;20.53;73.64
72525;BME280;60547;48.502;8.996;2022-07-23T03:07:58;97940.13;;;20.52;73.13
72525;BME280;60547;48.502;8.996;2022-07-23T03:10:24;97947.31;;;20.53;73.36
72525;BME280;60547;48.502;8.996;2022-07-23T03:12:49;97957.91;;;20.58;73.01
72525;BME280;60547;48.502;8.996;2022-07-23T03:15:14;97950.38;;;20.50;73.24
72525;BME280;60547;48.502;8.996;2022-07-23T03:17:40;97964.56;;;20.55;73.03
72525;BME280;60547;48.502;8.996;2022-07-23T03:20:06;97956.03;;;20.50;74.01
72525;BME280;60547;48.502;8.996;2022-07-23T03:22:33;97942.59;;;20.39;74.26
72525;BME280;60547;48.502;8.996;2022-07-23T03:24:58;97935.81;;;20.31;73.87
72525;BME280;60547;48.502;8.996;2022-07-23T03:27:25;97922.09;;;20.18;73.53
72525;BME280;60547;48.502;8.996;2022-07-23T03:29:52;97917.44;;;20.15;74.92
72525;BME280;60547;48.502;8.996;2022-07-23T03:32:18;97923.09;;;20.15;74.30
72525;BME280;60547;48.502;8.996;2022-07-23T03:34:43;97924.88;;;20.13;74.38
72525;BME280;60547;48.502;8.996;2022-07-23T03:37:09;97915.34;;;20.10;73.92
72525;BME280;60547;48.502;8.996;2022-07-23T03:39:34;97914.06;;;20.11;74.19
72525;BME280;60547;48.502;8.996;2022-07-23T03:42:00;97915.34;;;20.10;74.21
72525;BME280;60547;48.502;8.996;2022-07-23T03:44:25;97917.34;;;20.04;73.82
72525;BME280;60547;48.502;8.996;2022-07-23T03:46:51;97921.44;;;20.03;74.44
72525;BME280;60547;48.502;8.996;2022-07-23T03:49:16;97934.97;;;19.93;75.07
72525;BME280;60547;48.502;8.996;2022-07-23T03:51:42;97939.56;;;19.91;75.50
72525;BME280;60547;48.502;8.996;2022-07-23T03:54:07;97951.16;;;19.93;75.58
72525;BME280;60547;48.502;8.996;2022-07-23T03:56:32;97943.13;;;19.86;75.56
72525;BME280;60547;48.502;8.996;2022-07-23T03:58:58;97960.63;;;19.90;75.06
72525;BME280;60547;48.502;8.996;2022-07-23T04:01:23;97965.84;;;19.97;74.84
72525;BME280;60547;48.502;8.996;2022-07-23T04:03:49;97961.22;;;19.99;75.36
72525;BME280;60547;48.502;8.996;2022-07-23T04:06:14;97958.47;;;20.05;76.12
72525;BME280;60547;48.502;8.996;2022-07-23T04:08:39;97966.38;;;20.01;76.01
72525;BME280;60547;48.502;8.996;2022-07-23T04:11:05;97953.97;;;19.93;75.47
72525;BME280;60547;48.502;8.996;2022-07-23T04:13:30;97955.81;;;19.96;75.08
72525;BME280;60547;48.502;8.996;2022-07-23T04:15:58;97963.56;;;20.01;75.98
72525;BME280;60547;48.502;8.996;2022-07-23T04:18:23;97950.25;;;20.07;76.06
72525;BME280;60547;48.502;8.996;2022-07-23T04:20:50;97957.91;;;20.01;76.30
72525;BME280;60547;48.502;8.996;2022-07-23T04:23:16;97957.91;;;20.01;75.97
72525;BME280;60547;48.502;8.996;2022-07-23T04:25:42;97961.56;;;20.07;76.13
72525;BME280;60547;48.502;8.996;2022-07-23T04:28:07;97972.91;;;20.13;76.27
72525;BME280;60547;48.502;8.996;2022-07-23T04:30:33;97962.34;;;20.08;75.89
72525;BME280;60547;48.502;8.996;2022-07-23T04:32:58;97973.91;;;20.10;75.71
72525;BME280;60547;48.502;8.996;2022-07-23T04:35:23;97983.72;;;20.14;75.50
72525;BME280;60547;48.502;8.996;2022-07-23T04:37:49;97968.03;;;20.13;75.58
72525;BME280;60547;48.502;8.996;2022-07-23T04:40:14;97964.22;;;20.16;74.99
72525;BME280;60547;48.502;8.996;2022-07-23T04:42:40;97966.88;;;20.25;76.04
72525;BME280;60547;48.502;8.996;2022-07-23T04:45:06;97974.63;;;20.30;75.63
72525;BME280;60547;48.502;8.996;2022-07-23T04:47:31;97972.78;;;20.27;74.94
72525;BME280;60547;48.502;8.996;2022-07-23T04:49:57;97968.22;;;20.36;75.32
72525;BME280;60547;48.502;8.996;2022-07-23T04:52:23;97977.06;;;20.43;75.85
72525;BME280;60547;48.502;8.996;2022-07-23T04:54:49;97982.50;;;20.47;75.58
72525;BME280;60547;48.502;8.996;2022-07-23T04:57:14;97991.50;;;20.51;76.21
72525;BME280;60547;48.502;8.996;2022-07-23T04:59:40;97990.97;;;20.47;76.39
72525;BME280;60547;48.502;8.996;2022-07-23T05:02:05;97985.31;;;20.47;76.40
72525;BME280;60547;48.502;8.996;2022-07-23T05:04:31;97989.69;;;20.48;76.30
72525;BME280;60547;48.502;8.996;2022-07-23T05:06:57;97983.31;;;20.53;76.42
72525;BME280;60547;48.502;8.996;2022-07-23T05:09:23;97974.00;;;20.47;77.04
72525;BME280;60547;48.502;8.996;2022-07-23T05:11:48;97954.69;;;20.40;76.93
72525;BME280;60547;48.502;8.996;2022-07-23T05:14:13;97978.94;;;20.52;78.13
72525;BME280;60547;48.502;8.996;2022-07-23T05:16:39;97979.94;;;20.49;78.95
72525;BME280;60547;48.502;8.996;2022-07-23T05:19:04;97979.94;;;20.49;79.26
72525;BME280;60547;48.502;8.996;2022-07-23T05:21:30;97988.69;;;20.51;79.40
72525;BME280;60547;48.502;8.996;2022-07-23T05:23:55;97972.91;;;20.39;79.87
72525;BME280;60547;48.502;8.996;2022-07-23T05:26:21;97967.53;;;20.41;79.26
72525;BME280;60547;48.502;8.996;2022-07-23T05:28:46;97959.22;;;20.31;78.40
72525;BME280;60547;48.502;8.996;2022-07-23T05:31:11;97967.41;;;20.29;79.04
72525;BME280;60547;48.502;8.996;2022-07-23T05:33:37;97973.88;;;20.36;78.69
72525;BME280;60547;48.502;8.996;2022-07-23T05:36:03;97968.50;;;20.38;78.97
72525;BME280;60547;48.502;8.996;2022-07-23T05:38:29;97957.19;;;20.38;78.86
72525;BME280;60547;48.502;8.996;2022-07-23T05:40:55;97967.72;;;20.37;79.02
72525;BME280;60547;48.502;8.996;2022-07-23T05:43:20;97978.38;;;20.48;77.76
72525;BME280;60547;48.502;8.996;2022-07-23T05:45:46;97961.69;;;20.50;78.13
72525;BME280;60547;48.502;8.996;2022-07-23T05:48:11;97963.06;;;20.60;78.91
72525;BME280;60547;48.502;8.996;2022-07-23T05:50:36;97954.13;;;20.73;78.99
72525;BME280;60547;48.502;8.996;2022-07-23T05:53:02;97949.25;;;20.73;78.87
72525;BME280;60547;48.502;8.996;2022-07-23T05:55:27;97965.50;;;20.78;79.17
72525;BME280;60547;48.502;8.996;2022-07-23T05:57:55;97944.13;;;20.77;78.20
72525;BME280;60547;48.502;8.996;2022-07-23T06:00:21;97958.09;;;20.86;77.54
72525;BME280;60547;48.502;8.996;2022-07-23T06:02:46;97956.88;;;20.99;76.47
72525;BME280;60547;48.502;8.996;2022-07-23T06:05:11;97962.31;;;21.08;76.16
72525;BME280;60547;48.502;8.996;2022-07-23T06:07:37;97958.25;;;21.20;75.97
72525;BME280;60547;48.502;8.996;2022-07-23T06:10:03;97953.72;;;21.34;75.48
72525;BME280;60547;48.502;8.996;2022-07-23T06:12:29;97946.31;;;21.47;73.62
72525;BME280;60547;48.502;8.996;2022-07-23T06:14:54;97939.41;;;21.59;72.90
72525;BME280;60547;48.502;8.996;2022-07-23T06:17:20;97930.69;;;21.74;71.87
72525;BME280;60547;48.502;8.996;2022-07-23T06:19:45;97933.28;;;22.00;70.44
72525;BME280;60547;48.502;8.996;2022-07-23T06:22:10;97950.88;;;22.49;67.86
72525;BME280;60547;48.502;8.996;2022-07-23T06:24:36;97952.91;;;22.76;67.06
72525;BME280;60547;48.502;8.996;2022-07-23T06:27:01;97954.94;;;22.93;66.42
72525;BME280;60547;48.502;8.996;2022-07-23T06:29:27;97963.97;;;23.02;66.15
72525;BME280;60547;48.502;8.996;2022-07-23T06:31:52;97963.69;;;23.11;65.80
72525;BME280;60547;48.502;8.996;2022-07-23T06:34:18;97967.53;;;23.19;65.00
72525;BME280;60547;48.502;8.996;2022-07-23T06:36:43;97964.16;;;23.21;63.93
72525;BME280;60547;48.502;8.996;2022-07-23T06:39:08;97969.78;;;23.38;64.98
72525;BME280;60547;48.502;8.996;2022-07-23T06:41:34;97967.66;;;23.61;64.80
72525;BME280;60547;48.502;8.996;2022-07-23T06:43:59;97963.31;;;23.95;63.17
72525;BME280;60547;48.502;8.996;2022-07-23T06:46:25;97951.88;;;24.06;64.20
72525;BME280;60547;48.502;8.996;2022-07-23T06:48:50;97980.19;;;24.29;62.78
72525;BME280;60547;48.502;8.996;2022-07-23T06:51:15;97959.25;;;23.85;61.79
72525;BME280;60547;48.502;8.996;2022-07-23T06:53:41;97988.00;;;24.17;62.28
72525;BME280;60547;48.502;8.996;2022-07-23T06:56:06;97984.19;;;24.09;61.45
72525;BME280;60547;48.502;8.996;2022-07-23T06:58:32;97977.97;;;24.10;61.20
72525;BME280;60547;48.502;8.996;2022-07-23T07:00:57;97989.53;;;24.18;61.86
72525;BME280;60547;48.502;8.996;2022-07-23T07:03:23;97981.22;;;24.26;60.03
72525;BME280;60547;48.502;8.996;2022-07-23T07:05:48;97991.28;;;24.32;59.44
72525;BME280;60547;48.502;8.996;2022-07-23T07:08:15;97994.91;;;24.33;59.06
72525;BME280;60547;48.502;8.996;2022-07-23T07:10:40;98000.34;;;24.31;59.10
72525;BME280;60547;48.502;8.996;2022-07-23T07:13:06;97999.53;;;23.89;59.71
72525;BME280;60547;48.502;8.996;2022-07-23T07:15:32;97989.47;;;23.88;60.26
72525;BME280;60547;48.502;8.996;2022-07-23T07:17:57;97990.34;;;23.72;61.85
72525;BME280;60547;48.502;8.996;2022-07-23T07:20:22;97991.91;;;23.67;60.64
72525;BME280;60547;48.502;8.996;2022-07-23T07:22:49;97992.06;;;23.86;62.31
72525;BME280;60547;48.502;8.996;2022-07-23T07:25:15;97987.13;;;23.92;61.42
72525;BME280;60547;48.502;8.996;2022-07-23T07:27:40;98003.38;;;23.97;60.11
72525;BME280;60547;48.502;8.996;2022-07-23T07:30:06;98007.69;;;24.09;60.49
72525;BME280;60547;48.502;8.996;2022-07-23T07:32:32;97997.16;;;23.99;60.21
72525;BME280;60547;48.502;8.996;2022-07-23T07:34:58;98003.97;;;24.26;60.57
72525;BME280;60547;48.502;8.996;2022-07-23T07:37:23;98002.00;;;24.09;58.55
72525;BME280;60547;48.502;8.996;2022-07-23T07:39:49;98009.81;;;24.03;58.63
72525;BME280;60547;48.502;8.996;2022-07-23T07:42:14;98011.56;;;24.12;58.98
72525;BME280;60547;48.502;8.996;2022-07-23T07:44:40;98018.53;;;24.11;59.79
72525;BME280;60547;48.502;8.996;2022-07-23T07:47:05;98018.78;;;24.13;57.74
72525;BME280;60547;48.502;8.996;2022-07-23T07:49:30;98016.28;;;23.98;59.50
72525;BME280;60547;48.502;8.996;2022-07-23T07:51:56;98017.56;;;24.03;60.34
72525;BME280;60547;48.502;8.996;2022-07-23T07:54:21;98031.44;;;24.17;60.62
72525;BME280;60547;48.502;8.996;2022-07-23T07:56:47;98030.59;;;24.34;58.95
72525;BME280;60547;48.502;8.996;2022-07-23T07:59:13;98027.56;;;24.56;57.81
72525;BME280;60547;48.502;8.996;2022-07-23T08:01:40;98015.56;;;24.69;57.60
72525;BME280;60547;48.502;8.996;2022-07-23T08:04:05;98033.28;;;24.86;57.65
72525;BME280;60547;48.502;8.996;2022-07-23T08:06:31;98019.81;;;24.87;57.26
72525;BME280;60547;48.502;8.996;2022-07-23T08:08:56;98025.50;;;24.87;56.69
72525;BME280;60547;48.502;8.996;2022-07-23T08:11:22;98021.13;;;24.86;55.54
72525;BME280;60547;48.502;8.996;2022-07-23T08:13:47;98036.03;;;24.67;54.31
72525;BME280;60547;48.502;8.996;2022-07-23T08:16:13;98034.44;;;24.72;55.65
72525;BME280;60547;48.502;8.996;2022-07-23T08:18:38;98025.06;;;24.77;56.71
72525;BME280;60547;48.502;8.996;2022-07-23T08:21:04;98022.59;;;24.98;56.84
72525;BME280;60547;48.502;8.996;2022-07-23T08:23:32;98035.75;;;25.01;55.29
72525;BME280;60547;48.502;8.996;2022-07-23T08:25:57;98033.88;;;25.09;55.48
72525;BME280;60547;48.502;8.996;2022-07-23T08:28:25;98035.19;;;25.32;55.02
72525;BME280;60547;48.502;8.996;2022-07-23T08:30:50;98039.47;;;25.20;54.13
72525;BME280;60547;48.502;8.996;2022-07-23T08:33:16;98039.63;;;25.28;55.10
72525;BME280;60547;48.502;8.996;2022-07-23T08:35:47;98048.34;;;25.11;54.96
72525;BME280;60547;48.502;8.996;2022-07-23T08:38:15;98040.06;;;25.13;56.06
72525;BME280;60547;48.502;8.996;2022-07-23T08:40:46;98043.13;;;25.15;54.38
72525;BME280;60547;48.502;8.996;2022-07-23T08:43:20;98042.94;;;25.07;53.75
72525;BME280;60547;48.502;8.996;2022-07-23T08:45:53;98051.81;;;25.28;54.54
72525;BME280;60547;48.502;8.996;2022-07-23T08:48:21;98047.66;;;25.29;55.23
72525;BME280;60547;48.502;8.996;2022-07-23T08:50:49;98048.66;;;25.32;53.75
72525;BME280;60547;48.502;8.996;2022-07-23T08:53:17;98037.84;;;25.49;54.59
72525;BME280;60547;48.502;8.996;2022-07-23T08:55:47;98044.88;;;25.72;53.64
72525;BME280;60547;48.502;8.996;2022-07-23T08:58:14;98034.00;;;25.71;53.26
72525;BME280;60547;48.502;8.996;2022-07-23T09:00:40;98033.16;;;25.76;52.60
72525;BME280;60547;48.502;8.996;2022-07-23T09:03:06;98035.41;;;25.83;53.73
72525;BME280;60547;48.502;8.996;2022-07-23T09:05:31;98036.25;;;25.78;53.27
72525;BME280;60547;48.502;8.996;2022-07-23T09:08:14;98018.06;;;26.00;52.04
72525;BME280;60547;48.502;8.996;2022-07-23T09:13:42;98028.88;;;26.07;52.15
72525;BME280;60547;48.502;8.996;2022-07-23T09:18:44;98030.41;;;26.27;50.35
72525;BME280;60547;48.502;8.996;2022-07-23T09:21:15;98028.41;;;26.22;51.84
72525;BME280;60547;48.502;8.996;2022-07-23T09:23:43;98025.69;;;26.48;51.38
72525;BME280;60547;48.502;8.996;2022-07-23T09:26:44;98020.34;;;26.58;50.33
72525;BME280;60547;48.502;8.996;2022-07-23T09:29:09;98021.72;;;26.70;50.28
72525;BME280;60547;48.502;8.996;2022-07-23T09:31:42;98019.22;;;26.80;50.94
72525;BME280;60547;48.502;8.996;2022-07-23T09:34:15;98026.00;;;26.77;51.51
72525;BME280;60547;48.502;8.996;2022-07-23T09:36:41;98021.06;;;26.77;52.49
72525;BME280;60547;48.502;8.996;2022-07-23T09:39:07;98018.53;;;26.74;51.51
72525;BME280;60547;48.502;8.996;2022-07-23T09:41:46;98014.81;;;26.47;51.95
72525;BME280;60547;48.502;8.996;2022-07-23T09:44:13;98020.34;;;26.58;50.95
72525;BME280;60547;48.502;8.996;2022-07-23T09:46:40;98019.97;;;26.80;50.90
72525;BME280;60547;48.502;8.996;2022-07-23T09:49:11;98008.78;;;26.82;50.61
72525;BME280;60547;48.502;8.996;2022-07-23T09:51:55;98025.69;;;27.12;51.02
72525;BME280;60547;48.502;8.996;2022-07-23T09:54:39;98010.88;;;27.27;49.97
72525;BME280;60547;48.502;8.996;2022-07-23T09:57:10;98010.00;;;27.45;48.24
72525;BME280;60547;48.502;8.996;2022-07-23T09:59:42;98018.44;;;27.24;48.35
72525;BME280;60547;48.502;8.996;2022-07-23T10:02:10;98016.69;;;27.34;50.64
72525;BME280;60547;48.502;8.996;2022-07-23T10:04:37;98010.78;;;27.72;49.80
72525;BME280;60547;48.502;8.996;2022-07-23T10:07:04;98012.53;;;27.75;47.42
72525;BME280;60547;48.502;8.996;2022-07-23T10:09:32;98012.88;;;27.72;48.83
72525;BME280;60547;48.502;8.996;2022-07-23T10:12:00;98006.59;;;27.60;48.06
72525;BME280;60547;48.502;8.996;2022-07-23T10:14:38;98015.50;;;27.83;49.04
72525;BME280;60547;48.502;8.996;2022-07-23T10:17:06;98004.03;;;27.83;48.04
72525;BME280;60547;48.502;8.996;2022-07-23T10:19:32;98028.16;;;27.61;50.20
72525;BME280;60547;48.502;8.996;2022-07-23T10:30:12;98017.22;;;27.99;46.39
72525;BME280;60547;48.502;8.996;2022-07-23T10:32:52;98027.22;;;28.06;47.20
72525;BME280;60547;48.502;8.996;2022-07-23T10:35:46;98018.16;;;28.28;47.36
72525;BME280;60547;48.502;8.996;2022-07-23T10:38:20;98016.81;;;28.63;45.08
72525;BME280;60547;48.502;8.996;2022-07-23T10:40:54;98017.16;;;28.59;45.72
72525;BME280;60547;48.502;8.996;2022-07-23T10:43:21;98009.34;;;28.81;45.01
72525;BME280;60547;48.502;8.996;2022-07-23T10:45:46;98013.72;;;28.61;44.68
72525;BME280;60547;48.502;8.996;2022-07-23T10:48:21;98018.50;;;29.00;43.43
72525;BME280;60547;48.502;8.996;2022-07-23T10:51:12;98010.91;;;29.31;42.67
72525;BME280;60547;48.502;8.996;2022-07-23T10:53:53;98011.88;;;29.05;41.58
72525;BME280;60547;48.502;8.996;2022-07-23T10:59:15;98002.63;;;28.78;44.57
72525;BME280;60547;48.502;8.996;2022-07-23T11:01:41;97999.47;;;29.10;41.82
72525;BME280;60547;48.502;8.996;2022-07-23T11:04:07;98005.53;;;29.27;40.40
72525;BME280;60547;48.502;8.996;2022-07-23T11:09:27;97997.75;;;29.64;41.06
72525;BME280;60547;48.502;8.996;2022-07-23T11:15:08;98004.91;;;29.78;40.15
72525;BME280;60547;48.502;8.996;2022-07-23T11:22:55;98012.78;;;29.85;41.34
72525;BME280;60547;48.502;8.996;2022-07-23T11:27:47;98012.84;;;29.36;39.63
72525;BME280;60547;48.502;8.996;2022-07-23T11:33:18;98007.94;;;28.74;39.62
72525;BME280;60547;48.502;8.996;2022-07-23T11:35:49;98005.25;;;28.35;39.62
72525;BME280;60547;48.502;8.996;2022-07-23T11:38:21;98004.34;;;28.40;42.41
72525;BME280;60547;48.502;8.996;2022-07-23T11:40:52;98001.50;;;28.60;41.81
72525;BME280;60547;48.502;8.996;2022-07-23T11:43:18;98012.56;;;28.22;41.09
72525;BME280;60547;48.502;8.996;2022-07-23T11:45:47;98000.25;;;28.48;41.61
72525;BME280;60547;48.502;8.996;2022-07-23T11:48:18;97999.63;;;28.63;41.43
72525;BME280;60547;48.502;8.996;2022-07-23T11:50:44;98001.44;;;28.19;42.58
72525;BME280;60547;48.502;8.996;2022-07-23T11:53:10;97993.50;;;28.25;41.15
72525;BME280;60547;48.502;8.996;2022-07-23T11:55:35;97979.97;;;28.46;41.31
72525;BME280;60547;48.502;8.996;2022-07-23T11:58:01;97975.22;;;29.11;42.55
72525;BME280;60547;48.502;8.996;2022-07-23T12:00:29;97984.81;;;29.78;40.20
72525;BME280;60547;48.502;8.996;2022-07-23T12:02:57;97983.84;;;30.19;37.96
72525;BME280;60547;48.502;8.996;2022-07-23T12:05:26;97981.81;;;29.92;38.26
72525;BME280;60547;48.502;8.996;2022-07-23T12:07:54;97978.47;;;30.16;39.06
72525;BME280;60547;48.502;8.996;2022-07-23T12:10:22;97968.97;;;30.36;39.08
72525;BME280;60547;48.502;8.996;2022-07-23T12:12:51;97968.63;;;30.63;38.72
72525;BME280;60547;48.502;8.996;2022-07-23T12:15:25;97964.44;;;30.94;37.01
72525;BME280;60547;48.502;8.996;2022-07-23T12:17:52;97963.28;;;31.20;36.14
72525;BME280;60547;48.502;8.996;2022-07-23T12:20:23;97961.75;;;31.27;36.66
72525;BME280;60547;48.502;8.996;2022-07-23T12:23:03;97970.13;;;31.47;37.83
72525;BME280;60547;48.502;8.996;2022-07-23T12:25:34;97970.47;;;31.59;34.80
72525;BME280;60547;48.502;8.996;2022-07-23T12:28:05;97965.06;;;31.78;35.18
72525;BME280;60547;48.502;8.996;2022-07-23T12:30:48;97972.75;;;31.76;35.07
72525;BME280;60547;48.502;8.996;2022-07-23T12:33:25;97961.31;;;31.45;34.17
72525;BME280;60547;48.502;8.996;2022-07-23T12:35:53;97970.78;;;31.15;34.39
72525;BME280;60547;48.502;8.996;2022-07-23T12:38:21;97960.22;;;30.88;34.93
72525;BME280;60547;48.502;8.996;2022-07-23T12:40:56;97961.91;;;30.52;35.59
72525;BME280;60547;48.502;8.996;2022-07-23T12:43:31;97968.44;;;29.94;35.38
72525;BME280;60547;48.502;8.996;2022-07-23T12:46:12;97968.69;;;29.68;37.67
72525;BME280;60547;48.502;8.996;2022-07-23T12:51:07;97968.72;;;29.75;38.78
72525;BME280;60547;48.502;8.996;2022-07-23T12:53:40;97971.19;;;29.71;37.53
72525;BME280;60547;48.502;8.996;2022-07-23T12:58:51;97973.28;;;29.63;37.98
72525;BME280;60547;48.502;8.996;2022-07-23T13:04:18;97978.44;;;29.36;37.53
72525;BME280;60547;48.502;8.996;2022-07-23T13:07:06;97988.75;;;29.32;37.84
72525;BME280;60547;48.502;8.996;2022-07-23T13:09:33;97977.63;;;29.28;38.24
72525;BME280;60547;48.502;8.996;2022-07-23T13:11:59;97977.53;;;29.77;38.47
72525;BME280;60547;48.502;8.996;2022-07-23T13:14:26;97972.53;;;30.06;37.68
72525;BME280;60547;48.502;8.996;2022-07-23T13:16:53;97973.09;;;29.69;36.37
72525;BME280;60547;48.502;8.996;2022-07-23T13:19:19;97981.59;;;30.41;37.53
72525;BME280;60547;48.502;8.996;2022-07-23T13:21:45;97983.53;;;30.46;35.57
72525;BME280;60547;48.502;8.996;2022-07-23T13:24:11;97979.13;;;30.52;35.28
72525;BME280;60547;48.502;8.996;2022-07-23T13:26:38;97981.59;;;30.41;35.46
72525;BME280;60547;48.502;8.996;2022-07-23T13:29:05;97977.59;;;30.51;34.66
72525;BME280;60547;48.502;8.996;2022-07-23T13:31:30;97974.00;;;30.59;34.75
72525;BME280;60547;48.502;8.996;2022-07-23T13:33:56;97978.94;;;30.43;35.66
72525;BME280;60547;48.502;8.996;2022-07-23T13:36:21;97980.81;;;30.33;36.79
72525;BME280;60547;48.502;8.996;2022-07-23T13:38:46;97993.03;;;30.18;35.74
72525;BME280;60547;48.502;8.996;2022-07-23T13:41:12;98001.41;;;30.01;36.98